createdAt,value
2018-12-17T00:01:56.088Z,2.03
2018-12-17T00:04:27.581Z,2.04
2018-12-17T00:06:58.906Z,2.06
2018-12-17T00:09:27.995Z,2.06
2018-12-17T00:11:57.109Z,2.10
2018-12-17T00:14:26.162Z,2.09
2018-12-17T00:16:55.766Z,2.11
2018-12-17T00:19:24.823Z,2.12
2018-12-17T00:21:54.302Z,2.10
2018-12-17T00:24:23.686Z,2.09
2018-12-17T00:26:52.683Z,2.10
2018-12-17T00:29:22.502Z,2.14
2018-12-17T00:31:51.662Z,2.17
2018-12-17T00:34:20.684Z,2.10
2018-12-17T00:36:50.094Z,2.08
2018-12-17T00:39:19.109Z,2.04
2018-12-17T00:41:48.163Z,2.00
2018-12-17T00:44:18.205Z,1.97
2018-12-17T00:46:47.226Z,1.94
2018-12-17T00:49:16.276Z,1.93
2018-12-17T00:51:45.795Z,1.92
2018-12-17T00:54:15.191Z,1.92
2018-12-17T00:56:44.211Z,1.88
2018-12-17T00:59:13.512Z,1.85
2018-12-17T01:01:42.553Z,1.83
2018-12-17T01:04:12.603Z,1.80
2018-12-17T01:06:41.629Z,1.79
2018-12-17T01:09:10.794Z,1.78
2018-12-17T01:11:40.472Z,1.76
2018-12-17T01:14:09.811Z,1.75
2018-12-17T01:16:39.805Z,1.72
2018-12-17T01:19:08.844Z,1.70
2018-12-17T01:21:38.418Z,1.70
2018-12-17T01:24:07.569Z,1.66
2018-12-17T01:26:36.566Z,1.63
2018-12-17T01:29:06.130Z,1.61
2018-12-17T01:31:35.960Z,1.61
2018-12-17T01:34:05.233Z,1.61
2018-12-17T01:36:34.730Z,1.61
2018-12-17T01:39:05.507Z,1.59
2018-12-17T01:41:34.867Z,1.56
2018-12-17T01:44:03.914Z,1.04
2018-12-17T01:46:32.957Z,1.55
2018-12-17T01:49:02.317Z,1.56
2018-12-17T01:51:31.417Z,1.56
2018-12-17T01:54:00.442Z,1.55
2018-12-17T01:56:29.549Z,1.58
2018-12-17T01:58:59.142Z,1.51
2018-12-17T02:01:28.301Z,1.49
2018-12-17T02:03:58.195Z,1.49
2018-12-17T02:06:27.262Z,1.49
2018-12-17T02:08:56.342Z,1.47
2018-12-17T02:11:25.751Z,1.47
2018-12-17T02:13:55.474Z,1.55
2018-12-17T02:16:24.506Z,1.59
2018-12-17T02:18:54.054Z,1.61
2018-12-17T02:21:23.149Z,1.63
2018-12-17T02:23:53.870Z,1.66
2018-12-17T02:26:22.969Z,1.67
2018-12-17T02:28:52.002Z,1.69
2018-12-17T02:31:21.406Z,1.68
2018-12-17T02:33:50.435Z,1.65
2018-12-17T02:36:19.584Z,1.75
2018-12-17T02:38:48.917Z,1.76
2018-12-17T02:41:18.178Z,1.74
2018-12-17T02:43:47.699Z,1.71
2018-12-17T02:46:17.083Z,1.70
2018-12-17T02:48:46.277Z,1.67
2018-12-17T02:51:15.366Z,1.66
2018-12-17T02:53:45.792Z,1.65
2018-12-17T02:56:14.982Z,1.63
2018-12-17T02:58:44.301Z,1.60
2018-12-17T03:01:14.142Z,1.59
2018-12-17T03:03:43.297Z,1.58
2018-12-17T03:06:12.433Z,1.58
2018-12-17T03:08:41.768Z,1.55
2018-12-17T03:11:10.884Z,1.51
2018-12-17T03:13:39.902Z,1.49
2018-12-17T03:16:09.632Z,1.49
2018-12-17T03:18:38.816Z,1.51
2018-12-17T03:21:07.859Z,1.53
2018-12-17T03:23:37.287Z,1.55
2018-12-17T03:26:06.354Z,1.59
2018-12-17T03:28:35.367Z,1.63
2018-12-17T03:31:04.705Z,1.64
2018-12-17T03:33:33.761Z,1.65
2018-12-17T03:36:02.993Z,1.68
2018-12-17T03:38:32.377Z,1.67
2018-12-17T03:41:01.405Z,1.68
2018-12-17T03:43:30.550Z,1.69
2018-12-17T03:46:00.235Z,1.68
2018-12-17T03:48:29.470Z,1.66
2018-12-17T03:50:58.514Z,1.68
2018-12-17T03:53:27.862Z,1.69
2018-12-17T03:55:56.883Z,1.70
2018-12-17T03:58:25.907Z,1.72
2018-12-17T04:00:55.257Z,1.73
2018-12-17T04:03:24.435Z,1.75
2018-12-17T04:05:53.472Z,1.74
2018-12-17T04:08:22.853Z,1.73
2018-12-17T04:10:51.942Z,1.66
2018-12-17T04:13:21.905Z,1.63
2018-12-17T04:15:51.267Z,1.75
2018-12-17T04:18:20.284Z,1.74
2018-12-17T04:20:49.547Z,1.66
2018-12-17T04:23:18.952Z,1.71
2018-12-17T04:25:48.042Z,1.81
2018-12-17T04:28:17.220Z,1.89
2018-12-17T04:30:46.758Z,1.87
2018-12-17T04:33:15.782Z,1.78
2018-12-17T04:35:44.928Z,1.88
2018-12-17T04:38:14.343Z,1.96
2018-12-17T04:40:43.433Z,2.11
2018-12-17T04:43:12.554Z,2.18
2018-12-17T04:45:42.036Z,2.19
2018-12-17T04:48:11.753Z,2.17
2018-12-17T04:50:41.414Z,2.07
2018-12-17T04:53:10.500Z,2.09
2018-12-17T04:55:39.514Z,2.04
2018-12-17T04:58:09.056Z,2.04
2018-12-17T05:00:38.071Z,1.97
2018-12-17T05:03:07.082Z,1.92
2018-12-17T05:05:36.437Z,1.82
2018-12-17T05:08:05.561Z,1.77
2018-12-17T05:10:35.397Z,1.77
2018-12-17T05:13:04.743Z,1.71
2018-12-17T05:15:33.794Z,1.73
2018-12-17T05:18:02.847Z,1.78
2018-12-17T05:20:32.247Z,1.79
2018-12-17T05:23:01.560Z,1.81
2018-12-17T05:25:30.584Z,1.81
2018-12-17T05:28:00.197Z,1.84
2018-12-17T05:30:30.146Z,1.78
2018-12-17T05:32:59.977Z,1.78
2018-12-17T05:35:29.151Z,1.66
2018-12-17T05:38:00.599Z,1.69
2018-12-17T05:40:30.446Z,1.73
2018-12-17T05:42:59.621Z,1.72
2018-12-17T05:45:29.458Z,1.63
2018-12-17T05:47:58.530Z,1.66
2018-12-17T05:50:27.609Z,1.54
2018-12-17T05:52:56.924Z,1.59
2018-12-17T05:55:25.942Z,1.57
2018-12-17T05:57:55.016Z,1.57
2018-12-17T06:00:25.171Z,1.55
2018-12-17T06:02:54.303Z,1.51
2018-12-17T06:05:23.813Z,1.52
2018-12-17T06:07:53.133Z,1.41
2018-12-17T06:10:22.908Z,1.35
2018-12-17T06:12:52.051Z,1.21
2018-12-17T06:15:21.454Z,1.27
2018-12-17T06:17:50.487Z,1.24
2018-12-17T06:20:19.555Z,1.21
2018-12-17T06:22:48.889Z,1.39
2018-12-17T06:25:17.909Z,1.38
2018-12-17T06:27:46.961Z,1.47
2018-12-17T06:30:16.280Z,1.50
2018-12-17T06:32:45.325Z,1.51
2018-12-17T06:35:14.326Z,1.53
2018-12-17T06:37:43.844Z,1.52
2018-12-17T06:40:12.898Z,1.67
2018-12-17T06:42:42.081Z,1.65
2018-12-17T06:45:11.527Z,1.60
2018-12-17T06:47:40.599Z,1.57
2018-12-17T06:50:09.822Z,1.64
2018-12-17T06:52:39.215Z,1.70
2018-12-17T06:55:08.336Z,1.74
2018-12-17T06:57:37.562Z,1.65
2018-12-17T07:00:08.373Z,1.65
2018-12-17T07:02:37.541Z,1.65
2018-12-17T07:05:06.965Z,1.66
2018-12-17T07:07:39.384Z,1.70
2018-12-17T07:10:08.534Z,1.63
2018-12-17T07:12:37.741Z,1.38
2018-12-17T07:15:07.713Z,1.50
2018-12-17T07:17:36.736Z,1.51
2018-12-17T07:20:06.289Z,1.45
2018-12-17T07:22:35.601Z,1.49
2018-12-17T07:25:05.174Z,1.37
2018-12-17T07:27:34.170Z,1.27
2018-12-17T07:30:03.513Z,1.31
2018-12-17T07:32:32.563Z,1.28
2018-12-17T07:35:01.605Z,1.30
2018-12-17T07:37:31.309Z,1.37
2018-12-17T07:40:00.362Z,1.40
2018-12-17T07:42:29.470Z,1.43
2018-12-17T07:44:58.810Z,1.43
2018-12-17T07:47:27.818Z,1.44
2018-12-17T07:49:56.817Z,1.41
2018-12-17T07:52:26.256Z,1.42
2018-12-17T07:54:55.239Z,1.43
2018-12-17T07:57:24.239Z,1.43
2018-12-17T07:59:56.652Z,1.48
2018-12-17T08:02:24.498Z,1.43
2018-12-17T08:04:53.523Z,1.45
2018-12-17T08:07:22.702Z,1.52
2018-12-17T08:09:51.709Z,1.48
2018-12-17T08:12:21.149Z,1.48
2018-12-17T08:14:50.229Z,1.54
2018-12-17T08:17:19.290Z,1.53
2018-12-17T08:19:48.463Z,1.47
2018-12-17T08:22:17.685Z,1.49
2018-12-17T08:24:46.705Z,1.46
2018-12-17T08:27:15.737Z,1.49
2018-12-17T08:29:44.760Z,1.54
2018-12-17T08:32:13.762Z,1.72
2018-12-17T08:34:42.882Z,1.72
2018-12-17T08:37:12.713Z,1.73
2018-12-17T08:39:41.726Z,1.76
2018-12-17T08:42:11.065Z,1.79
2018-12-17T08:44:40.336Z,1.80
2018-12-17T08:47:09.426Z,1.81
2018-12-17T08:49:38.473Z,1.91
2018-12-17T08:52:07.497Z,1.94
2018-12-17T08:54:36.539Z,1.90
2018-12-17T08:57:06.741Z,1.92
2018-12-17T08:59:35.850Z,1.93
2018-12-17T09:02:05.062Z,1.91
2018-12-17T09:04:34.119Z,1.91
2018-12-17T09:07:03.358Z,1.98
2018-12-17T09:09:32.534Z,2.02
2018-12-17T09:12:01.586Z,2.07
2018-12-17T09:14:30.610Z,2.03
2018-12-17T09:17:00.128Z,2.00
2018-12-17T09:19:29.550Z,1.96
2018-12-17T09:21:58.570Z,1.96
2018-12-17T09:24:27.729Z,1.96
2018-12-17T09:26:57.139Z,1.97
2018-12-17T09:29:26.153Z,2.00
2018-12-17T09:31:55.212Z,1.98
2018-12-17T09:34:24.358Z,2.00
2018-12-17T09:36:53.507Z,2.07
2018-12-17T09:39:22.641Z,2.04
2018-12-17T09:41:52.214Z,2.09
2018-12-17T09:44:21.721Z,2.05
2018-12-17T09:46:51.220Z,1.92
2018-12-17T09:49:20.450Z,1.98
2018-12-17T09:51:49.508Z,1.98
2018-12-17T09:54:18.543Z,1.97
2018-12-17T09:56:48.093Z,2.05
2018-12-17T09:59:17.204Z,2.06
2018-12-17T10:01:48.669Z,2.08
2018-12-17T10:04:17.735Z,2.01
2018-12-17T10:06:46.875Z,2.01
2018-12-17T10:09:16.538Z,2.06
2018-12-17T10:11:45.545Z,2.05
2018-12-17T10:14:14.562Z,2.06
2018-12-17T10:16:43.962Z,2.03
2018-12-17T10:19:12.958Z,2.15
2018-12-17T10:21:41.977Z,2.16
2018-12-17T10:24:11.214Z,2.10
2018-12-17T10:26:40.275Z,2.15
2018-12-17T10:29:09.394Z,2.20
2018-12-17T10:31:38.942Z,2.23
2018-12-17T10:34:07.957Z,2.21
2018-12-17T10:36:37.003Z,2.26
2018-12-17T10:39:08.067Z,2.24
2018-12-17T10:41:38.150Z,2.16
2018-12-17T10:44:09.301Z,2.28
2018-12-17T10:46:38.537Z,2.24
2018-12-17T10:49:07.582Z,2.27
2018-12-17T10:51:36.919Z,2.27
2018-12-17T10:54:05.993Z,2.13
2018-12-17T10:56:35.032Z,2.14
2018-12-17T10:59:04.514Z,2.26
2018-12-17T11:01:38.925Z,2.29
2018-12-17T11:04:16.911Z,2.31
2018-12-17T11:06:45.938Z,2.26
2018-12-17T11:09:15.354Z,2.35
2018-12-17T11:11:44.734Z,2.38
2018-12-17T11:14:14.251Z,2.29
2018-12-17T11:16:43.295Z,2.37
2018-12-17T11:19:12.367Z,2.37
2018-12-17T11:21:41.371Z,2.44
2018-12-17T11:24:10.386Z,2.47
2018-12-17T11:26:39.457Z,2.51
2018-12-17T11:29:09.549Z,2.51
2018-12-17T11:31:41.679Z,2.41
2018-12-17T11:34:10.691Z,2.43
2018-12-17T11:36:39.715Z,2.43
2018-12-17T11:39:10.474Z,2.43
2018-12-17T11:41:39.489Z,2.38
2018-12-17T11:44:08.520Z,2.25
2018-12-17T11:46:37.907Z,2.36
2018-12-17T11:49:06.920Z,2.41
2018-12-17T11:51:35.925Z,2.37
2018-12-17T11:54:05.090Z,2.38
2018-12-17T11:56:46.866Z,2.34
2018-12-17T11:59:15.914Z,2.37
2018-12-17T12:01:46.914Z,2.36
2018-12-17T12:04:15.954Z,2.33
2018-12-17T12:06:45.070Z,2.26
2018-12-17T12:09:18.560Z,2.27
2018-12-17T12:11:48.323Z,2.26
2018-12-17T12:14:17.325Z,2.22
2018-12-17T12:16:46.353Z,2.19
2018-12-17T12:19:15.395Z,2.06
2018-12-17T12:21:44.410Z,2.18
2018-12-17T12:24:13.463Z,2.25
2018-12-17T12:26:42.473Z,2.20
2018-12-17T12:29:11.530Z,2.11
2018-12-17T12:31:41.376Z,2.15
2018-12-17T12:34:10.367Z,2.20
2018-12-17T12:36:39.404Z,2.25
2018-12-17T12:39:08.557Z,2.29
2018-12-17T12:41:39.584Z,2.29
2018-12-17T12:44:08.999Z,2.25
2018-12-17T12:46:38.201Z,2.23
2018-12-17T12:49:08.729Z,2.27
2018-12-17T12:51:37.746Z,2.15
2018-12-17T12:54:07.496Z,2.06
2018-12-17T12:56:36.836Z,2.13
2018-12-17T12:59:06.534Z,2.12
2018-12-17T13:01:35.550Z,2.05
2018-12-17T13:04:04.866Z,2.18
2018-12-17T13:06:33.903Z,2.20
2018-12-17T13:09:03.054Z,2.14
2018-12-17T13:11:32.094Z,2.18
2018-12-17T13:14:02.079Z,2.11
2018-12-17T13:16:31.126Z,1.99
2018-12-17T13:19:00.172Z,1.95
2018-12-17T13:21:29.311Z,1.96
2018-12-17T13:23:58.334Z,1.90
2018-12-17T13:26:27.357Z,1.87
2018-12-17T13:28:56.391Z,1.91
2018-12-17T13:31:25.564Z,1.88
2018-12-17T13:33:55.018Z,1.88
2018-12-17T13:36:24.024Z,1.82
2018-12-17T13:38:53.066Z,1.79
2018-12-17T13:41:22.308Z,1.72
2018-12-17T13:43:51.305Z,1.59
2018-12-17T13:46:21.409Z,1.49
2018-12-17T13:48:50.910Z,1.39
2018-12-17T13:51:26.101Z,1.11
2018-12-17T13:53:59.773Z,1.30
2018-12-17T13:56:29.359Z,1.37
2018-12-17T13:58:58.361Z,1.39
2018-12-17T14:01:27.745Z,1.24
2018-12-17T14:03:56.763Z,1.26
2018-12-17T14:06:25.782Z,1.39
2018-12-17T14:08:55.342Z,1.15
2018-12-17T14:11:24.358Z,1.28
2018-12-17T14:13:53.390Z,1.34
2018-12-17T14:16:26.580Z,1.34
2018-12-17T14:19:01.018Z,1.37
2018-12-17T14:21:35.256Z,1.34
2018-12-17T14:24:04.387Z,1.28
2018-12-17T14:26:33.736Z,1.36
2018-12-17T14:29:02.753Z,1.31
2018-12-17T14:34:02.798Z,1.38
2018-12-17T14:36:31.831Z,1.32
2018-12-17T14:39:00.841Z,1.27
2018-12-17T14:41:29.896Z,1.28
2018-12-17T14:44:03.889Z,1.30
2018-12-17T14:46:37.469Z,1.41
2018-12-17T14:49:06.515Z,1.32
2018-12-17T14:51:36.382Z,1.39
2018-12-17T14:54:05.446Z,1.46
2018-12-17T14:56:34.469Z,1.50
2018-12-17T14:59:03.586Z,1.45
2018-12-17T15:01:35.899Z,1.48
2018-12-17T15:04:04.230Z,1.49
2018-12-17T15:06:33.323Z,1.53
2018-12-17T15:09:02.347Z,1.63
2018-12-17T15:11:32.379Z,1.71
2018-12-17T15:14:02.539Z,1.67
2018-12-17T15:16:31.536Z,1.75
2018-12-17T15:19:00.535Z,1.81
2018-12-17T15:21:29.943Z,1.88
2018-12-17T15:23:58.950Z,1.94
2018-12-17T15:26:28.057Z,1.84
2018-12-17T15:28:57.269Z,1.63
2018-12-17T15:31:27.736Z,1.64
2018-12-17T15:33:57.134Z,1.58
2018-12-17T15:36:26.340Z,1.60
2018-12-17T15:38:56.243Z,1.46
2018-12-17T15:41:25.310Z,1.52
2018-12-17T15:43:54.609Z,1.38
2018-12-17T15:46:23.847Z,1.35
2018-12-17T15:48:52.888Z,1.35
2018-12-17T15:51:22.619Z,1.42
2018-12-17T15:53:51.839Z,1.44
2018-12-17T15:56:21.133Z,1.44
2018-12-17T15:58:53.321Z,1.44
2018-12-17T16:01:23.442Z,-1.39
2018-12-17T16:03:52.472Z,1.51
2018-12-17T16:06:21.555Z,1.57
2018-12-17T16:08:50.918Z,1.57
2018-12-17T16:11:19.966Z,1.54
2018-12-17T16:13:49.003Z,1.61
2018-12-17T16:16:18.318Z,1.61
2018-12-17T16:18:47.427Z,1.61
2018-12-17T16:21:16.496Z,1.57
2018-12-17T16:23:45.909Z,1.51
2018-12-17T16:26:15.589Z,1.34
2018-12-17T16:28:45.374Z,1.47
2018-12-17T16:31:14.729Z,1.51
2018-12-17T16:33:43.773Z,1.50
2018-12-17T16:36:14.608Z,1.54
2018-12-17T16:38:44.017Z,1.57
2018-12-17T16:41:17.429Z,1.64
2018-12-17T16:43:46.487Z,1.65
2018-12-17T16:46:15.497Z,1.69
2018-12-17T16:48:44.533Z,1.67
2018-12-17T16:51:13.615Z,1.63
2018-12-17T16:53:42.609Z,1.72
2018-12-17T16:56:11.959Z,1.76
2018-12-17T16:58:41.333Z,1.80
2018-12-17T17:01:10.426Z,1.88
2018-12-17T17:03:39.509Z,1.94
2018-12-17T17:06:08.828Z,1.41
2018-12-17T17:08:37.897Z,1.96
2018-12-17T17:11:07.113Z,2.00
2018-12-17T17:13:36.542Z,2.01
2018-12-17T17:16:05.613Z,2.02
2018-12-17T17:18:35.050Z,2.03
2018-12-17T17:21:04.198Z,2.01
2018-12-17T17:23:33.497Z,1.96
2018-12-17T17:26:02.642Z,2.05
2018-12-17T17:28:31.698Z,2.04
2018-12-17T17:31:00.753Z,1.97
2018-12-17T17:33:30.067Z,1.93
2018-12-17T17:35:59.399Z,1.90
2018-12-17T17:38:28.404Z,1.88
2018-12-17T17:40:58.320Z,1.78
2018-12-17T17:43:28.457Z,1.78
2018-12-17T17:45:57.462Z,1.76
2018-12-17T17:48:26.482Z,1.70
2018-12-17T17:50:55.493Z,1.69
2018-12-17T17:53:24.602Z,1.69
2018-12-17T17:55:53.606Z,1.64
2018-12-17T17:58:22.930Z,1.69
2018-12-17T18:00:52.174Z,1.66
2018-12-17T18:03:21.422Z,1.63
2018-12-17T18:05:50.783Z,1.61
2018-12-17T18:08:19.821Z,1.59
2018-12-17T18:10:48.858Z,1.54
2018-12-17T18:13:18.365Z,1.51
2018-12-17T18:15:47.427Z,1.55
2018-12-17T18:18:16.434Z,1.54
2018-12-17T18:20:45.491Z,1.58
2018-12-17T18:23:14.504Z,1.58
2018-12-17T18:25:43.527Z,1.59
2018-12-17T18:28:13.836Z,1.59
2018-12-17T18:30:42.850Z,1.59
2018-12-17T18:33:11.907Z,1.55
2018-12-17T18:35:40.950Z,1.57
2018-12-17T18:38:10.077Z,1.53
2018-12-17T18:40:39.102Z,1.57
2018-12-17T18:43:08.170Z,1.59
2018-12-17T18:45:37.189Z,1.62
2018-12-17T18:48:06.253Z,1.65
2018-12-17T18:50:35.464Z,1.68
2018-12-17T18:53:04.906Z,1.73
2018-12-17T18:55:34.035Z,1.77
2018-12-17T18:58:03.074Z,1.74
2018-12-17T19:00:32.237Z,1.75
2018-12-17T19:03:01.245Z,1.74
2018-12-17T19:05:30.727Z,1.75
2018-12-17T19:08:00.215Z,1.78
2018-12-17T19:10:33.570Z,1.80
2018-12-17T19:13:03.277Z,1.87
2018-12-17T19:15:32.372Z,1.85
2018-12-17T19:18:01.525Z,1.88
2018-12-17T19:20:30.593Z,1.83
2018-12-17T19:22:59.615Z,1.88
2018-12-17T19:25:28.698Z,1.90
2018-12-17T19:27:57.739Z,1.89
2018-12-17T19:30:27.252Z,1.77
2018-12-17T19:32:57.516Z,1.82
2018-12-17T19:35:26.722Z,1.80
2018-12-17T19:37:56.445Z,1.81
2018-12-17T19:40:25.924Z,1.67
2018-12-17T19:42:55.018Z,1.65
2018-12-17T19:45:24.109Z,1.60
2018-12-17T19:47:53.222Z,1.50
2018-12-17T19:50:22.242Z,1.37
2018-12-17T19:52:51.335Z,1.33
2018-12-17T19:55:20.515Z,1.22
2018-12-17T19:57:49.582Z,1.21
2018-12-17T20:00:18.606Z,1.12
2018-12-17T20:02:48.285Z,1.17
2018-12-17T20:05:17.535Z,1.14
2018-12-17T20:07:47.879Z,0.82
2018-12-17T20:10:24.037Z,0.99
2018-12-17T20:12:53.106Z,1.00
2018-12-17T20:15:22.506Z,1.02
2018-12-17T20:17:52.379Z,1.00
2018-12-17T20:20:21.842Z,1.04
2018-12-17T20:22:51.110Z,1.03
2018-12-17T20:25:20.138Z,1.10
2018-12-17T20:27:49.201Z,0.94
2018-12-17T20:30:18.330Z,1.06
2018-12-17T20:32:53.384Z,1.07
2018-12-17T20:35:18.452Z,1.10
2018-12-17T20:37:47.902Z,1.03
2018-12-17T20:40:17.014Z,1.04
2018-12-17T20:42:46.341Z,1.02
2018-12-17T20:45:15.566Z,1.03
2018-12-17T20:47:45.168Z,1.07
2018-12-17T20:50:14.518Z,1.10
2018-12-17T20:52:43.756Z,1.08
2018-12-17T20:55:14.101Z,1.09
2018-12-17T20:57:43.992Z,1.11
2018-12-17T21:00:13.131Z,1.13
2018-12-17T21:02:42.222Z,1.13
2018-12-17T21:05:11.665Z,1.15
2018-12-17T21:07:40.666Z,1.17
2018-12-17T21:10:10.343Z,1.16
2018-12-17T21:12:39.966Z,0.42
2018-12-17T21:15:09.203Z,1.08
2018-12-17T21:17:39.213Z,1.10
2018-12-17T21:20:08.773Z,1.10
2018-12-17T21:22:37.864Z,1.16
2018-12-17T21:25:07.124Z,1.22
2018-12-17T21:27:36.378Z,1.24
2018-12-17T21:30:06.193Z,1.24
2018-12-17T21:32:35.217Z,1.28
2018-12-17T21:35:05.204Z,1.35
2018-12-17T21:37:35.099Z,1.42
2018-12-17T21:40:05.024Z,1.45
2018-12-17T21:42:34.112Z,1.48
2018-12-17T21:45:03.440Z,1.54
2018-12-17T21:47:32.522Z,1.63
2018-12-17T21:50:01.705Z,1.60
2018-12-17T21:52:30.797Z,1.64
2018-12-17T21:55:01.144Z,1.57
2018-12-17T21:57:30.186Z,1.55
2018-12-17T21:59:59.305Z,1.50
2018-12-17T22:02:28.832Z,1.46
2018-12-17T22:04:57.887Z,1.38
2018-12-17T22:07:27.990Z,1.38
2018-12-17T22:09:57.332Z,1.39
2018-12-17T22:12:26.422Z,1.39
2018-12-17T22:14:55.571Z,1.41
2018-12-17T22:17:25.032Z,1.42
2018-12-17T22:19:54.034Z,1.37
2018-12-17T22:22:23.078Z,1.39
2018-12-17T22:24:52.132Z,1.38
2018-12-17T22:27:21.242Z,1.39
2018-12-17T22:29:50.269Z,1.35
2018-12-17T22:32:19.409Z,1.34
2018-12-17T22:34:49.103Z,1.33
2018-12-17T22:37:18.578Z,1.30
2018-12-17T22:39:47.916Z,1.28
2018-12-17T22:42:16.950Z,1.29
2018-12-17T22:44:45.994Z,1.27
2018-12-17T22:47:15.105Z,1.22
2018-12-17T22:49:44.210Z,1.24
2018-12-17T22:52:13.245Z,1.22
2018-12-17T22:54:42.902Z,1.21
2018-12-17T22:57:11.967Z,1.18
2018-12-17T22:59:40.976Z,1.16
2018-12-17T23:02:11.660Z,1.14
2018-12-17T23:04:40.946Z,1.10
2018-12-17T23:07:10.026Z,1.04
2018-12-17T23:09:50.779Z,1.00
2018-12-17T23:12:30.851Z,1.01
2018-12-17T23:15:11.499Z,0.93
2018-12-17T23:17:42.182Z,0.98
2018-12-17T23:20:11.481Z,1.05
2018-12-17T23:22:44.280Z,1.09
2018-12-17T23:25:16.279Z,1.01
2018-12-17T23:27:51.571Z,1.08
2018-12-17T23:30:23.146Z,1.01
2018-12-17T23:32:52.918Z,0.90
2018-12-17T23:35:22.357Z,1.01
2018-12-17T23:37:51.786Z,0.96
2018-12-17T23:40:21.089Z,0.92
2018-12-17T23:42:50.142Z,0.95
2018-12-17T23:45:20.845Z,0.86
2018-12-17T23:47:49.862Z,0.88
2018-12-17T23:50:19.007Z,0.97
2018-12-17T23:52:48.408Z,0.96
2018-12-17T23:55:17.424Z,0.95
2018-12-17T23:57:46.431Z,0.91
